createdAt,value
2024-03-19T07:55:08.377Z,564.00
2024-03-19T07:56:07.493Z,528.00
2024-03-19T07:57:07.374Z,720.00
2024-03-19T07:58:08.683Z,556.00
2024-03-19T07:59:07.125Z,488.00
2024-03-19T08:00:07.044Z,692.00
2024-03-19T08:01:06.917Z,528.00
2024-03-19T08:02:06.825Z,368.00
2024-03-19T08:03:06.744Z,460.00
2024-03-19T08:04:06.672Z,716.00
2024-03-19T08:05:06.670Z,516.00
2024-03-19T08:06:06.501Z,584.00
2024-03-19T08:07:06.425Z,640.00
2024-03-19T08:08:06.333Z,716.00
2024-03-19T08:09:06.249Z,844.00
2024-03-19T08:10:06.185Z,924.00
2024-03-19T08:11:06.088Z,1012.00
2024-03-19T08:12:06.018Z,1012.00
2024-03-19T08:13:05.918Z,992.00
2024-03-19T08:14:05.834Z,1208.00
2024-03-19T08:15:05.751Z,1936.00
2024-03-19T08:16:05.666Z,2032.00
2024-03-19T08:17:05.588Z,2060.00
2024-03-19T08:18:05.511Z,1840.00
2024-03-19T08:19:05.423Z,1672.00
2024-03-19T08:20:05.336Z,2056.00
2024-03-19T08:21:05.257Z,1888.00
2024-03-19T08:22:05.165Z,1768.00
2024-03-19T08:23:05.099Z,1988.00
2024-03-19T08:24:05.006Z,2036.00
2024-03-19T08:25:04.922Z,2104.00
2024-03-19T08:26:04.984Z,2176.00
2024-03-19T08:27:04.848Z,2144.00
2024-03-19T08:28:04.683Z,2080.00
2024-03-19T08:29:04.591Z,2140.00
2024-03-19T08:30:05.590Z,2164.00
2024-03-19T08:31:06.357Z,2200.00
2024-03-19T08:32:04.355Z,2232.00
2024-03-19T08:33:04.259Z,2212.00
2024-03-19T08:34:04.187Z,2280.00
2024-03-19T08:35:04.099Z,2260.00
2024-03-19T08:36:04.011Z,2164.00
2024-03-19T08:37:03.931Z,2228.00
2024-03-19T08:38:03.852Z,2260.00
2024-03-19T08:39:03.782Z,2300.00
2024-03-19T08:40:03.687Z,2352.00
2024-03-19T08:41:03.604Z,2372.00
2024-03-19T08:42:05.912Z,2400.00
2024-03-19T08:43:03.442Z,2412.00
2024-03-19T08:44:03.362Z,2424.00
2024-03-19T08:45:03.278Z,2428.00
2024-03-19T08:46:03.208Z,2424.00
2024-03-19T08:47:03.117Z,2436.00
2024-03-19T08:48:03.043Z,2456.00
2024-03-19T08:49:02.993Z,2456.00
2024-03-19T08:50:02.874Z,2472.00
2024-03-19T08:51:02.792Z,2480.00
2024-03-19T08:52:02.712Z,2480.00
2024-03-19T08:53:02.630Z,2488.00
2024-03-19T08:54:02.547Z,2476.00
2024-03-19T08:55:02.470Z,2408.00
2024-03-19T08:56:02.406Z,2416.00
2024-03-19T08:57:02.306Z,2480.00
2024-03-19T08:58:02.219Z,2408.00
2024-03-19T08:59:02.146Z,2400.00
2024-03-19T09:00:02.092Z,2392.00
2024-03-19T09:01:01.976Z,2436.00
2024-03-19T09:02:01.912Z,2440.00
2024-03-19T09:03:01.853Z,2456.00
2024-03-19T09:04:01.740Z,2484.00
2024-03-19T09:05:01.673Z,2520.00
2024-03-19T09:06:01.623Z,2528.00
2024-03-19T09:07:01.501Z,2536.00
2024-03-19T09:08:01.532Z,2492.00
2024-03-19T09:09:01.377Z,2472.00
2024-03-19T09:10:01.273Z,2444.00
2024-03-19T09:11:01.186Z,2476.00
2024-03-19T09:12:01.100Z,2500.00
2024-03-19T09:13:01.024Z,2552.00
2024-03-19T09:14:00.947Z,2552.00
2024-03-19T09:15:00.863Z,2504.00
2024-03-19T09:16:00.780Z,2488.00
2024-03-19T09:17:00.701Z,2508.00
2024-03-19T09:18:00.630Z,2520.00
2024-03-19T09:19:00.571Z,2516.00
2024-03-19T09:20:00.479Z,2464.00
2024-03-19T09:21:00.385Z,2476.00
2024-03-19T09:22:00.309Z,2468.00
2024-03-19T09:23:00.229Z,2432.00
2024-03-19T09:24:01.947Z,2432.00
2024-03-19T09:25:03.271Z,2296.00
2024-03-19T09:26:00.888Z,2420.00
2024-03-19T09:27:00.226Z,2400.00
2024-03-19T09:28:00.335Z,2356.00
2024-03-19T09:28:59.906Z,2396.00
2024-03-19T09:30:00.464Z,2400.00
2024-03-19T09:31:00.150Z,2384.00
2024-03-19T09:31:59.881Z,2372.00
2024-03-19T09:33:00.268Z,2388.00
2024-03-19T09:33:59.989Z,2380.00
2024-03-19T09:35:00.017Z,2388.00
2024-03-19T09:35:59.358Z,2384.00
2024-03-19T09:36:59.660Z,2404.00
2024-03-19T09:37:59.519Z,2364.00
2024-03-19T09:38:59.110Z,2332.00
2024-03-19T09:39:59.983Z,2300.00
2024-03-19T09:40:59.072Z,2332.00
2024-03-19T09:41:59.224Z,2380.00
2024-03-19T09:42:58.713Z,2384.00
2024-03-19T09:43:59.960Z,2356.00
2024-03-19T09:44:58.638Z,2360.00
2024-03-19T09:45:58.524Z,2388.00
2024-03-19T09:46:59.079Z,2388.00
2024-03-19T09:47:59.680Z,2392.00
